Time;durP1;ratioP1;P1;durP2;ratioP2;P2;SDS_P1;SDS_P2;PMS_P1;PMS_P2;Temp;Humidity;BMP_temperature;BMP_pressure;BME280_temperature;BME280_humidity;BME280_pressure;Samples;Min_cycle;Max_cycle;Signal;HPM_P1;HPM_P2
2021/09/13 00:09:28;;;;;;;14.10;12.70;;;;;;;13.94;75.10;99442.77;472466;1194;142903;-61
2021/09/13 00:19:31;;;;;;;13.30;12.00;;;;;;;13.90;75.66;99441.84;470249;1194;142340;-62
2021/09/13 00:29:35;;;;;;;16.50;13.50;;;;;;;13.82;75.53;99442.84;471709;1194;142763;-61
2021/09/13 00:39:38;;;;;;;13.00;11.70;;;;;;;13.72;75.23;99444.48;472993;1190;142057;-63
2021/09/13 00:49:41;;;;;;;12.20;11.10;;;;;;;13.63;75.53;99448.34;472522;1194;142195;-61
2021/09/13 00:59:45;;;;;;;12.20;10.90;;;;;;;13.53;75.26;99448.05;471720;1194;141587;-61
2021/09/13 01:09:48;;;;;;;11.50;10.40;;;;;;;13.42;75.07;99437.83;473040;1183;152449;-61
2021/09/13 01:19:51;;;;;;;11.50;10.30;;;;;;;13.32;74.92;99423.48;471869;1193;143400;-61
2021/09/13 01:29:56;;;;;;;12.90;11.60;;;;;;;13.23;74.95;99421.38;472602;1194;142614;-61
2021/09/13 01:40:00;;;;;;;11.70;10.60;;;;;;;13.13;75.16;99417.33;472796;1194;143586;-61
2021/09/13 01:50:04;;;;;;;12.50;11.30;;;;;;;13.06;75.14;99418.61;471842;1194;142927;-62
2021/09/13 02:00:10;;;;;;;12.30;10.50;;;;;;;13.01;75.41;99418.45;472841;1193;142960;-61
2021/09/13 02:10:13;;;;;;;12.50;11.30;;;;;;;12.95;75.26;99419.96;472713;1194;142668;-61
2021/09/13 02:20:16;;;;;;;13.00;11.60;;;;;;;12.91;75.61;99426.09;472120;1194;141924;-61
2021/09/13 02:30:20;;;;;;;11.60;10.50;;;;;;;12.87;75.68;99430.75;472914;1194;142109;-62
2021/09/13 02:40:24;;;;;;;12.20;11.00;;;;;;;12.85;75.78;99437.23;472121;1194;143124;-62
2021/09/13 02:50:27;;;;;;;12.20;11.10;;;;;;;12.86;76.11;99440.42;471973;1194;142489;-61
2021/09/13 03:00:30;;;;;;;13.50;12.10;;;;;;;12.91;76.64;99443.10;472776;1194;143630;-62
2021/09/13 03:10:33;;;;;;;14.30;12.20;;;;;;;12.90;76.62;99442.45;471275;1194;142125;-61
2021/09/13 03:20:36;;;;;;;12.40;10.60;;;;;;;12.91;76.45;99440.29;462109;1194;142316;-61
2021/09/13 03:30:39;;;;;;;19.30;17.20;;;;;;;12.90;76.37;99436.13;472936;1194;145807;-62
2021/09/13 03:40:43;;;;;;;19.50;17.00;;;;;;;13.02;77.05;99431.02;472952;1194;142294;-62
2021/09/13 03:50:46;;;;;;;16.90;13.50;;;;;;;13.12;77.06;99438.53;470793;1194;142827;-62
2021/09/13 04:00:50;;;;;;;23.50;18.60;;;;;;;13.23;76.99;99441.36;460408;1194;142169;-62
2021/09/13 04:11:06;;;;;;;20.60;18.50;;;;;;;13.31;77.26;99439.73;465600;1194;146299;-62
2021/09/13 04:21:09;;;;;;;28.40;17.80;;;;;;;13.34;77.24;99451.43;472728;1194;144647;-61
2021/09/13 04:31:12;;;;;;;31.30;27.90;;;;;;;13.43;77.32;99457.96;472839;1193;142477;-61
2021/09/13 04:41:16;;;;;;;47.30;25.00;;;;;;;13.53;77.51;99467.89;471645;1194;142662;-61
2021/09/13 04:51:20;;;;;;;37.60;24.50;;;;;;;13.68;77.56;99465.73;472762;1194;142894;-61
2021/09/13 05:01:23;;;;;;;26.90;22.30;;;;;;;13.86;77.55;99466.44;473040;1190;142990;-61
2021/09/13 05:11:26;;;;;;;27.10;23.00;;;;;;;14.05;77.56;99473.72;472071;1194;142512;-62
2021/09/13 05:21:32;;;;;;;28.50;20.30;;;;;;;14.27;77.60;99478.42;472705;1193;141619;-62
2021/09/13 05:31:36;;;;;;;39.30;21.00;;;;;;;14.63;77.40;99487.71;472805;1194;142070;-62
2021/09/13 05:41:39;;;;;;;32.20;18.40;;;;;;;15.19;77.14;99488.05;467684;1194;142375;-62
2021/09/13 05:51:45;;;;;;;27.80;17.10;;;;;;;15.82;76.28;99493.04;472814;1193;142218;-61
2021/09/13 06:01:49;;;;;;;21.60;15.60;;;;;;;16.99;75.28;99497.09;467209;1194;143017;-61
2021/09/13 06:11:53;;;;;;;20.00;13.60;;;;;;;19.15;72.61;99493.77;466391;1194;142025;-61
2021/09/13 06:22:00;;;;;;;27.40;14.30;;;;;;;20.38;69.57;99494.69;472955;1194;143930;-62
2021/09/13 06:32:05;;;;;;;16.60;13.30;;;;;;;22.98;66.03;99492.89;472088;1194;145472;-61
2021/09/13 06:42:08;;;;;;;14.60;13.10;;;;;;;23.44;63.18;99486.92;472297;1194;142411;-61
2021/09/13 06:52:11;;;;;;;17.30;11.80;;;;;;;23.51;62.03;99493.23;472670;1195;142948;-62
2021/09/13 07:02:14;;;;;;;12.80;11.60;;;;;;;25.46;60.35;99494.55;471876;1195;141692;-62
2021/09/13 07:12:19;;;;;;;17.10;12.40;;;;;;;27.44;55.90;99498.58;473011;1192;141653;-63
2021/09/13 07:22:23;;;;;;;13.10;11.90;;;;;;;30.52;52.41;99499.79;472807;1194;141473;-60
2021/09/13 07:32:26;;;;;;;9.80;8.90;;;;;;;32.26;46.83;99501.05;472163;1195;141435;-58
2021/09/13 07:42:30;;;;;;;14.20;10.00;;;;;;;32.01;44.92;99505.54;471477;1194;141176;-54
2021/09/13 07:52:34;;;;;;;11.50;8.20;;;;;;;31.12;43.84;99511.57;465787;1194;141189;-57
2021/09/13 08:02:39;;;;;;;;;;;;;;;29.01;44.39;99517.20;467189;1194;141171;-59
2021/09/13 08:12:43;;;;;;;9.70;8.90;;;;;;;30.48;44.58;99521.55;469178;1194;128521;-57
2021/09/13 08:22:47;;;;;;;8.50;7.10;;;;;;;30.98;42.33;99525.45;472098;1194;140697;-54
2021/09/13 08:32:51;;;;;;;7.90;6.60;;;;;;;35.58;39.84;99533.30;472708;1194;141462;-57
2021/09/13 08:42:54;;;;;;;;;;;;;;;35.94;35.80;99535.99;472607;1194;141231;-57
2021/09/13 08:52:59;;;;;;;6.30;5.60;;;;;;;32.86;37.54;99538.45;472402;1193;166357;-57
2021/09/13 09:03:05;;;;;;;5.60;5.20;;;;;;;31.97;37.96;99537.42;469839;1193;141084;-58
2021/09/13 09:13:12;;;;;;;6.00;5.50;;;;;;;30.37;39.41;99536.27;472511;1195;141879;-59
2021/09/13 09:23:17;;;;;;;6.90;4.90;;;;;;;28.85;40.54;99531.40;472299;1190;141107;-59
2021/09/13 09:33:22;;;;;;;5.30;4.80;;;;;;;27.49;42.20;99529.78;472954;1194;142304;-59
2021/09/13 09:43:25;;;;;;;4.50;4.20;;;;;;;27.27;42.93;99525.21;472972;1194;140543;-59
2021/09/13 09:53:40;;;;;;;5.70;4.30;;;;;;;26.87;43.47;99524.71;472066;1194;142180;-59
2021/09/13 10:03:44;;;;;;;5.20;4.70;;;;;;;24.99;44.56;99529.99;472421;1194;140944;-58
2021/09/13 10:13:47;;;;;;;7.20;4.20;;;;;;;23.50;46.77;99534.23;472247;1182;142238;-57
2021/09/13 10:23:53;;;;;;;4.80;3.80;;;;;;;23.40;47.87;99535.64;472398;1194;142051;-59
2021/09/13 10:33:59;;;;;;;4.60;3.80;;;;;;;23.69;47.31;99533.13;466761;1194;142415;-57
2021/09/13 10:44:05;;;;;;;5.30;4.10;;;;;;;23.66;47.53;99527.04;470791;1195;140889;-59
2021/09/13 10:54:16;;;;;;;5.80;2.90;;;;;;;24.13;46.47;99520.83;472854;1194;140530;-59
2021/09/13 11:04:21;;;;;;;4.40;2.90;;;;;;;24.13;44.97;99515.28;472774;1194;140810;-58
2021/09/13 11:14:25;;;;;;;5.90;4.00;;;;;;;23.84;45.40;99514.65;466410;1194;141548;-58
2021/09/13 11:24:29;;;;;;;4.60;3.90;;;;;;;24.05;45.58;99514.63;472352;1194;141260;-59
2021/09/13 11:34:39;;;;;;;7.30;4.20;;;;;;;24.19;45.35;99524.58;472897;1190;141485;-58
2021/09/13 11:44:45;;;;;;;4.80;4.10;;;;;;;23.54;45.90;99528.01;472192;1190;142322;-56
2021/09/13 11:54:55;;;;;;;6.20;5.60;;;;;;;23.13;47.29;99532.11;472459;1191;140459;-54
2021/09/13 12:05:04;;;;;;;6.20;3.60;;;;;;;23.23;46.22;99529.75;471926;1194;143402;-53
2021/09/13 12:15:10;;;;;;;6.10;4.80;;;;;;;23.39;44.48;99518.63;472714;1194;141237;-59
2021/09/13 12:25:16;;;;;;;5.70;3.90;;;;;;;23.40;44.47;99510.15;472703;1194;141344;-61
2021/09/13 12:35:34;;;;;;;3.30;3.00;;;;;;;23.22;45.02;99502.40;470189;1194;141910;-65
2021/09/13 12:45:37;;;;;;;6.20;3.40;;;;;;;23.03;45.11;99508.54;472737;1194;141763;-57
2021/09/13 12:55:43;;;;;;;6.70;3.40;;;;;;;22.83;45.55;99516.75;471231;1194;141329;-60
2021/09/13 13:05:50;;;;;;;3.60;3.30;;;;;;;22.71;45.89;99512.65;456251;1195;140148;-62
2021/09/13 13:15:53;;;;;;;5.50;3.30;;;;;;;22.62;46.27;99512.08;469712;1194;141992;-62
2021/09/13 13:25:57;;;;;;;4.10;3.20;;;;;;;22.61;45.64;99512.22;471936;1194;142062;-60
2021/09/13 13:36:00;;;;;;;7.30;3.30;;;;;;;22.44;45.86;99509.94;471504;1194;141858;-59
2021/09/13 13:46:04;;;;;;;4.60;3.60;;;;;;;22.09;45.98;99507.00;472431;1194;140370;-58
2021/09/13 13:56:09;;;;;;;4.70;3.40;;;;;;;21.95;46.03;99513.92;471765;1194;141653;-55
2021/09/13 14:06:13;;;;;;;6.10;3.30;;;;;;;21.75;45.97;99511.22;472728;1194;141764;-59
2021/09/13 14:16:16;;;;;;;4.80;4.20;;;;;;;21.86;46.49;99504.05;472837;1194;145030;-59
2021/09/13 14:26:20;;;;;;;6.70;3.60;;;;;;;21.87;46.25;99510.06;471948;1194;141329;-61
2021/09/13 14:36:24;;;;;;;6.90;3.70;;;;;;;21.87;46.01;99514.34;472577;1194;140362;-61
2021/09/13 14:46:27;;;;;;;2.40;2.20;;;;;;;21.68;45.53;99514.27;469229;1194;141301;-57
2021/09/13 14:56:30;;;;;;;4.50;3.20;;;;;;;21.51;45.76;99521.98;455482;1194;140631;-64
2021/09/13 15:06:35;;;;;;;8.80;3.60;;;;;;;21.39;46.34;99527.10;463815;1194;140741;-59
2021/09/13 15:16:39;;;;;;;2.80;2.60;;;;;;;21.40;46.56;99520.34;472851;1194;141686;-62
2021/09/13 15:26:42;;;;;;;6.50;2.60;;;;;;;21.26;46.63;99519.58;471940;1194;140720;-61
2021/09/13 15:36:45;;;;;;;4.70;3.40;;;;;;;21.17;46.89;99526.85;472841;1194;141565;-61
2021/09/13 15:46:52;;;;;;;6.00;3.20;;;;;;;20.88;47.11;99531.56;471847;1194;166138;-61
2021/09/13 15:56:56;;;;;;;6.10;2.80;;;;;;;20.68;47.70;99533.64;472826;1194;143793;-63
2021/09/13 16:06:59;;;;;;;6.10;3.30;;;;;;;20.50;48.16;99535.21;472681;1194;140811;-64
2021/09/13 16:17:03;;;;;;;4.60;4.30;;;;;;;20.24;48.80;99542.49;471871;1194;141306;-61
2021/09/13 16:27:07;;;;;;;5.70;3.90;;;;;;;19.95;49.43;99542.32;472697;1194;141992;-60
2021/09/13 16:37:11;;;;;;;4.10;3.70;;;;;;;19.61;49.91;99553.07;467762;1194;140634;-63
2021/09/13 16:47:14;;;;;;;8.90;4.90;;;;;;;19.23;50.72;99557.30;465590;1194;141588;-61
2021/09/13 16:57:17;;;;;;;9.40;5.60;;;;;;;18.84;51.71;99561.25;462640;1194;140828;-62
2021/09/13 17:07:21;;;;;;;10.70;4.90;;;;;;;18.42;52.70;99567.27;443082;1194;10001754;-59
2021/09/13 17:17:25;;;;;;;9.60;4.90;;;;;;;17.97;53.96;99572.09;460507;1194;142309;-63
2021/09/13 17:27:29;;;;;;;12.60;4.50;;;;;;;17.54;55.30;99571.90;457956;1194;141395;-63
2021/09/13 17:37:32;;;;;;;19.10;4.20;;;;;;;17.13;56.81;99578.84;465776;1194;179525;-62
2021/09/13 17:47:36;;;;;;;24.60;5.20;;;;;;;16.75;58.07;99582.77;462301;1194;143067;-58
2021/09/13 17:57:40;;;;;;;19.30;5.30;;;;;;;16.39;59.16;99587.38;472565;1193;142686;-58
2021/09/13 18:07:43;;;;;;;11.60;4.40;;;;;;;16.02;60.23;99594.65;472883;1194;141858;-64
2021/09/13 18:17:46;;;;;;;10.30;4.60;;;;;;;15.74;60.97;99605.79;471943;1194;197775;-67
2021/09/13 18:27:49;;;;;;;9.70;4.50;;;;;;;15.46;61.71;99606.86;472645;1194;142977;-66
2021/09/13 18:37:53;;;;;;;18.10;6.00;;;;;;;15.24;62.23;99608.92;472130;1194;144630;-60
2021/09/13 18:47:58;;;;;;;7.00;5.30;;;;;;;14.98;62.78;99615.26;472833;1194;142949;-63
2021/09/13 18:58:01;;;;;;;11.20;6.30;;;;;;;14.76;63.44;99623.55;472621;1194;143607;-59
2021/09/13 19:08:06;;;;;;;14.50;8.70;;;;;;;14.50;63.98;99632.46;472128;1182;142413;-61
2021/09/13 19:18:10;;;;;;;32.30;18.30;;;;;;;14.29;64.56;99643.45;456656;1194;10139713;-62
2021/09/13 19:28:14;;;;;;;23.70;14.60;;;;;;;14.09;64.98;99653.62;469679;1192;145897;-64
2021/09/13 19:38:20;;;;;;;22.30;11.40;;;;;;;13.88;65.49;99666.45;456944;1194;142497;-55
2021/09/13 19:48:23;;;;;;;26.00;13.40;;;;;;;13.64;65.95;99677.29;472733;1194;142426;-66
2021/09/13 19:58:26;;;;;;;20.50;13.40;;;;;;;13.42;66.67;99690.17;466075;1191;142161;-65
2021/09/13 20:08:30;;;;;;;17.50;12.20;;;;;;;13.24;66.90;99693.58;467300;1194;142398;-59
2021/09/13 20:18:33;;;;;;;19.60;11.70;;;;;;;13.03;67.37;99698.05;470097;1193;141898;-59
2021/09/13 20:28:36;;;;;;;23.00;12.40;;;;;;;12.90;67.81;99700.88;463695;1194;141598;-56
2021/09/13 20:38:40;;;;;;;16.80;11.50;;;;;;;12.75;67.90;99700.77;455665;1195;141263;-58
2021/09/13 20:48:44;;;;;;;16.50;12.60;;;;;;;12.53;68.21;99705.77;459003;1194;141475;-58
2021/09/13 20:58:47;;;;;;;17.50;13.80;;;;;;;12.39;68.78;99710.48;456726;1200;141843;-54
2021/09/13 21:08:51;;;;;;;19.80;11.70;;;;;;;12.25;69.00;99708.78;466170;1195;141918;-61
2021/09/13 21:18:54;;;;;;;18.90;12.10;;;;;;;12.12;69.29;99708.98;462944;1195;142710;-60
2021/09/13 21:28:57;;;;;;;14.40;11.90;;;;;;;12.00;69.59;99718.16;472036;1194;141661;-61
2021/09/13 21:39:00;;;;;;;17.10;11.90;;;;;;;11.94;69.94;99726.43;461056;1195;141388;-60
2021/09/13 21:49:04;;;;;;;16.10;10.90;;;;;;;11.89;70.29;99729.75;457384;1195;146372;-61
2021/09/13 21:59:08;;;;;;;17.10;11.10;;;;;;;11.81;70.67;99730.63;455826;1198;142250;-62
2021/09/13 22:09:12;;;;;;;11.80;10.00;;;;;;;11.64;70.73;99730.68;456741;1195;141850;-56
2021/09/13 22:19:15;;;;;;;15.00;11.10;;;;;;;11.60;71.15;99727.45;472469;1195;142021;-58
2021/09/13 22:29:19;;;;;;;16.90;11.80;;;;;;;11.59;71.45;99733.16;468473;1195;141643;-57
2021/09/13 22:39:23;;;;;;;15.70;10.50;;;;;;;11.53;71.60;99732.45;472681;1194;142280;-57
2021/09/13 22:49:27;;;;;;;25.90;12.00;;;;;;;11.39;71.52;99735.83;472765;1195;142415;-58
2021/09/13 22:59:30;;;;;;;16.70;10.00;;;;;;;11.26;71.70;99747.38;472172;1194;142942;-58
2021/09/13 23:09:34;;;;;;;12.80;8.60;;;;;;;11.14;71.80;99756.17;472514;1194;143107;-60
2021/09/13 23:19:37;;;;;;;13.60;10.30;;;;;;;11.09;72.00;99752.85;472921;1194;142185;-60
2021/09/13 23:29:40;;;;;;;14.20;10.70;;;;;;;11.03;72.33;99750.92;472192;1182;143538;-61
2021/09/13 23:39:44;;;;;;;11.00;7.90;;;;;;;10.93;72.11;99751.52;472797;1194;141909;-60
2021/09/13 23:49:48;;;;;;;11.00;8.40;;;;;;;10.85;72.43;99748.19;472298;1194;195803;-58
2021/09/13 23:59:51;;;;;;;12.10;8.90;;;;;;;10.72;72.57;99745.83;465707;1194;142391;-61
